Time;durP1;ratioP1;P1;durP2;ratioP2;P2;SDS_P1;SDS_P2;PMS_P1;PMS_P2;Temp;Humidity;BMP_temperature;BMP_pressure;BME280_temperature;BME280_humidity;BME280_pressure;Samples;Min_cycle;Max_cycle;Signal;HPM_P1;HPM_P2
2023/09/10 00:00:49;;;;;;;18.67;17.43;;;;;;;;;;4889828;29;20906;-73
2023/09/10 00:03:15;;;;;;;19.03;17.53;;;;;;;;;;4887453;29;20448;-72
2023/09/10 00:05:41;;;;;;;20.67;19.03;;;;;;;;;;4881056;29;20453;-73
2023/09/10 00:08:07;;;;;;;20.23;18.80;;;;;;;;;;4891655;29;20441;-74
2023/09/10 00:10:33;;;;;;;18.77;17.37;;;;;;;;;;4884876;29;20440;-72
2023/09/10 00:12:59;;;;;;;18.60;17.20;;;;;;;;;;4892516;29;20499;-72
2023/09/10 00:15:25;;;;;;;19.67;17.77;;;;;;;;;;4897151;29;20440;-73
2023/09/10 00:17:52;;;;;;;18.67;17.37;;;;;;;;;;4879249;29;20434;-74
2023/09/10 00:20:18;;;;;;;19.57;18.07;;;;;;;;;;4891905;29;20445;-73
2023/09/10 00:22:44;;;;;;;18.73;17.53;;;;;;;;;;4886996;29;20504;-73
2023/09/10 00:25:10;;;;;;;19.30;17.80;;;;;;;;;;4896830;29;20457;-72
2023/09/10 00:27:36;;;;;;;18.53;17.23;;;;;;;;;;4891531;29;20441;-73
2023/09/10 00:30:03;;;;;;;19.43;18.00;;;;;;;;;;4881894;29;20452;-73
2023/09/10 00:32:29;;;;;;;18.57;17.30;;;;;;;;;;4892022;29;20472;-73
2023/09/10 00:34:55;;;;;;;18.43;17.13;;;;;;;;;;4892028;29;20475;-73
2023/09/10 00:37:21;;;;;;;19.73;18.27;;;;;;;;;;4879567;29;20888;-72
2023/09/10 00:39:47;;;;;;;18.13;17.00;;;;;;;;;;4884295;29;20524;-72
2023/09/10 00:42:13;;;;;;;18.13;16.93;;;;;;;;;;4884213;29;20544;-74
2023/09/10 00:44:41;;;;;;;18.30;16.97;;;;;;;;;;4891197;29;20444;-73
2023/09/10 00:47:07;;;;;;;19.07;17.43;;;;;;;;;;4885237;29;20777;-72
2023/09/10 00:49:33;;;;;;;21.30;19.33;;;;;;;;;;4886589;29;20432;-71
2023/09/10 00:52:01;;;;;;;18.70;17.50;;;;;;;;;;4884262;29;20464;-73
2023/09/10 00:54:30;;;;;;;19.57;18.17;;;;;;;;;;4880103;29;20441;-73
2023/09/10 00:56:56;;;;;;;19.03;17.60;;;;;;;;;;4892323;29;20807;-73
2023/09/10 00:59:22;;;;;;;19.50;18.10;;;;;;;;;;4884570;29;20511;-72
2023/09/10 01:01:48;;;;;;;18.10;16.67;;;;;;;;;;4891672;29;20472;-73
2023/09/10 01:04:15;;;;;;;18.53;17.40;;;;;;;;;;4890534;29;20881;-73
2023/09/10 01:06:41;;;;;;;21.27;19.57;;;;;;;;;;4890214;29;20933;-72
2023/09/10 01:09:07;;;;;;;18.80;17.13;;;;;;;;;;4883839;29;20449;-72
2023/09/10 01:11:33;;;;;;;20.37;18.70;;;;;;;;;;4891350;29;20417;-71
2023/09/10 01:14:02;;;;;;;18.50;17.13;;;;;;;;;;4880975;29;20491;-72
2023/09/10 01:16:35;;;;;;;20.47;19.17;;;;;;;;;;4891356;29;20823;-72
2023/09/10 01:19:20;;;;;;;20.30;19.00;;;;;;;;;;4891025;29;20443;-74
2023/09/10 01:22:01;;;;;;;21.00;19.50;;;;;;;;;;4886503;29;20639;-72
2023/09/10 01:24:48;;;;;;;18.60;17.30;;;;;;;;;;4890835;29;20532;-73
2023/09/10 01:27:15;;;;;;;19.17;17.87;;;;;;;;;;4889842;29;20819;-73
2023/09/10 01:29:41;;;;;;;19.33;18.03;;;;;;;;;;4887408;29;20441;-72
2023/09/10 01:32:11;;;;;;;20.30;18.77;;;;;;;;;;4887183;29;20492;-73
2023/09/10 01:34:44;;;;;;;19.60;18.20;;;;;;;;;;4888285;29;20960;-73
2023/09/10 01:37:19;;;;;;;20.83;19.23;;;;;;;;;;4873416;29;20961;-73
2023/09/10 01:39:49;;;;;;;19.27;17.87;;;;;;;;;;4881830;29;20463;-73
2023/09/10 01:42:16;;;;;;;20.10;18.70;;;;;;;;;;4890926;29;20476;-72
2023/09/10 01:44:42;;;;;;;19.40;18.10;;;;;;;;;;4890935;29;21163;-73
2023/09/10 01:47:08;;;;;;;20.07;18.20;;;;;;;;;;4890461;29;20437;-73
2023/09/10 01:49:34;;;;;;;19.03;17.60;;;;;;;;;;4890137;29;21047;-73
2023/09/10 01:52:00;;;;;;;21.10;19.50;;;;;;;;;;4890851;29;20513;-72
2023/09/10 01:54:26;;;;;;;18.67;17.57;;;;;;;;;;4890055;29;20528;-73
2023/09/10 01:56:52;;;;;;;21.40;19.50;;;;;;;;;;4878373;29;20410;-73
2023/09/10 01:59:18;;;;;;;22.80;20.60;;;;;;;;;;4886484;29;20902;-73
2023/09/10 02:01:44;;;;;;;19.43;17.90;;;;;;;;;;4880173;29;20454;-73
2023/09/10 02:04:10;;;;;;;21.17;19.17;;;;;;;;;;4888340;29;20491;-72
2023/09/10 02:06:36;;;;;;;20.17;18.77;;;;;;;;;;4888183;29;20444;-74
2023/09/10 02:09:02;;;;;;;19.60;17.90;;;;;;;;;;4886794;29;20441;-72
2023/09/10 02:11:28;;;;;;;20.33;18.80;;;;;;;;;;4881315;29;20422;-72
2023/09/10 02:13:54;;;;;;;19.67;18.20;;;;;;;;;;4889319;29;23865;-72
2023/09/10 02:16:21;;;;;;;21.93;20.03;;;;;;;;;;4888132;29;20425;-73
2023/09/10 02:18:47;;;;;;;20.43;18.97;;;;;;;;;;4887232;29;20461;-73
2023/09/10 02:21:13;;;;;;;19.10;17.67;;;;;;;;;;4890150;29;20581;-73
2023/09/10 02:23:42;;;;;;;19.50;18.20;;;;;;;;;;4889906;29;20433;-73
2023/09/10 02:26:08;;;;;;;20.37;18.97;;;;;;;;;;4889991;29;20433;-73
2023/09/10 02:28:34;;;;;;;20.37;18.77;;;;;;;;;;4889789;29;20441;-72
2023/09/10 02:31:07;;;;;;;20.90;19.40;;;;;;;;;;4886173;29;20445;-72
2023/09/10 02:33:33;;;;;;;19.63;18.23;;;;;;;;;;4889483;29;20469;-72
2023/09/10 02:35:59;;;;;;;20.13;18.73;;;;;;;;;;4889595;29;20453;-72
2023/09/10 02:38:27;;;;;;;20.90;19.50;;;;;;;;;;4889563;29;20457;-72
2023/09/10 02:40:53;;;;;;;20.13;18.53;;;;;;;;;;4888700;29;20647;-72
2023/09/10 02:43:19;;;;;;;18.17;17.17;;;;;;;;;;4889292;29;20959;-72
2023/09/10 02:45:44;;;;;;;20.63;19.13;;;;;;;;;;4889332;29;20451;-72
2023/09/10 02:48:10;;;;;;;19.40;17.83;;;;;;;;;;4889132;29;20463;-72
2023/09/10 02:50:36;;;;;;;18.70;17.40;;;;;;;;;;4889233;29;20441;-72
2023/09/10 02:53:02;;;;;;;19.27;17.97;;;;;;;;;;4888818;29;21011;-72
2023/09/10 02:55:29;;;;;;;17.83;16.70;;;;;;;;;;4881538;29;20461;-72
2023/09/10 02:57:54;;;;;;;20.43;19.03;;;;;;;;;;4887487;29;20536;-72
2023/09/10 03:00:25;;;;;;;20.30;18.80;;;;;;;;;;4875774;29;21219;-73
2023/09/10 03:02:52;;;;;;;19.03;17.83;;;;;;;;;;4881385;29;21101;-72
2023/09/10 03:05:18;;;;;;;20.87;19.10;;;;;;;;;;4889214;29;20460;-72
2023/09/10 03:07:44;;;;;;;20.07;18.57;;;;;;;;;;4889267;29;20481;-72
2023/09/10 03:10:10;;;;;;;20.87;19.27;;;;;;;;;;4883045;29;20436;-71
2023/09/10 03:12:36;;;;;;;20.23;18.93;;;;;;;;;;4889415;29;20479;-73
2023/09/10 03:15:02;;;;;;;21.93;19.90;;;;;;;;;;4889444;29;21202;-72
2023/09/10 03:17:28;;;;;;;18.93;17.73;;;;;;;;;;4884223;29;20491;-72
2023/09/10 03:19:54;;;;;;;20.43;19.03;;;;;;;;;;4888560;29;21079;-72
2023/09/10 03:22:20;;;;;;;20.90;19.43;;;;;;;;;;4888508;29;20461;-72
2023/09/10 03:24:46;;;;;;;20.23;18.77;;;;;;;;;;4887445;29;20475;-71
2023/09/10 03:27:12;;;;;;;20.83;19.40;;;;;;;;;;4888621;29;20437;-70
2023/09/10 03:29:38;;;;;;;21.30;19.60;;;;;;;;;;4884611;29;20451;-71
2023/09/10 03:32:08;;;;;;;21.07;19.60;;;;;;;;;;4896979;29;20447;-71
2023/09/10 03:34:34;;;;;;;20.90;19.40;;;;;;;;;;4896819;29;20531;-71
2023/09/10 03:37:00;;;;;;;21.03;19.53;;;;;;;;;;4888986;29;20965;-71
2023/09/10 03:39:27;;;;;;;20.70;19.30;;;;;;;;;;4883554;29;20942;-72
2023/09/10 03:41:54;;;;;;;20.80;19.23;;;;;;;;;;4884944;29;20757;-71
2023/09/10 03:44:20;;;;;;;21.43;19.70;;;;;;;;;;4888670;29;20441;-71
2023/09/10 03:46:46;;;;;;;22.53;20.87;;;;;;;;;;4883851;29;20465;-71
2023/09/10 03:49:12;;;;;;;21.00;19.70;;;;;;;;;;4884778;29;20436;-71
2023/09/10 03:51:39;;;;;;;20.77;19.27;;;;;;;;;;4892827;29;20428;-70
2023/09/10 03:54:07;;;;;;;20.63;19.03;;;;;;;;;;4889774;29;20472;-71
2023/09/10 03:56:33;;;;;;;19.80;18.33;;;;;;;;;;4883777;29;20421;-72
2023/09/10 03:58:59;;;;;;;22.93;21.30;;;;;;;;;;4891903;29;20444;-71
2023/09/10 04:01:25;;;;;;;21.93;20.43;;;;;;;;;;4890004;29;20488;-72
2023/09/10 04:03:51;;;;;;;22.90;20.90;;;;;;;;;;4883655;29;20437;-73
2023/09/10 04:06:17;;;;;;;22.87;21.10;;;;;;;;;;4892719;29;20480;-72
2023/09/10 04:08:43;;;;;;;22.37;20.70;;;;;;;;;;4893018;29;20484;-72
2023/09/10 04:11:09;;;;;;;23.07;21.30;;;;;;;;;;4890448;29;20437;-71
2023/09/10 04:13:35;;;;;;;21.67;20.07;;;;;;;;;;4892105;29;20551;-72
2023/09/10 04:16:01;;;;;;;22.77;20.97;;;;;;;;;;4892146;29;20455;-71
2023/09/10 04:18:27;;;;;;;23.50;21.70;;;;;;;;;;4887065;29;20432;-71
2023/09/10 04:20:53;;;;;;;22.00;20.50;;;;;;;;;;4894595;29;20457;-72
2023/09/10 04:23:19;;;;;;;21.60;20.00;;;;;;;;;;4885070;29;21262;-71
2023/09/10 04:25:45;;;;;;;21.77;20.27;;;;;;;;;;4888187;29;20471;-72
2023/09/10 04:28:11;;;;;;;22.50;20.87;;;;;;;;;;4892188;29;20448;-71
2023/09/10 04:30:37;;;;;;;22.90;21.27;;;;;;;;;;4889509;29;20456;-71
2023/09/10 04:33:03;;;;;;;22.53;20.93;;;;;;;;;;4882519;29;20472;-71
2023/09/10 04:35:29;;;;;;;23.93;22.13;;;;;;;;;;4891566;29;21048;-71
2023/09/10 04:37:55;;;;;;;24.60;22.60;;;;;;;;;;4887003;29;20548;-70
2023/09/10 04:40:21;;;;;;;21.63;19.93;;;;;;;;;;4891221;29;20456;-71
2023/09/10 04:42:47;;;;;;;22.77;20.87;;;;;;;;;;4891902;29;20441;-71
2023/09/10 04:45:13;;;;;;;22.23;20.73;;;;;;;;;;4890270;29;21139;-71
2023/09/10 04:47:39;;;;;;;24.47;22.53;;;;;;;;;;4885466;29;20590;-71
2023/09/10 04:50:06;;;;;;;23.37;21.67;;;;;;;;;;4891664;29;20898;-71
2023/09/10 04:52:32;;;;;;;22.80;20.80;;;;;;;;;;4890806;29;20475;-71
2023/09/10 04:54:58;;;;;;;22.30;20.30;;;;;;;;;;4890941;29;20440;-71
2023/09/10 04:57:24;;;;;;;22.73;20.90;;;;;;;;;;4891985;29;20449;-72
2023/09/10 04:59:50;;;;;;;22.43;20.83;;;;;;;;;;4885264;29;20463;-71
2023/09/10 05:02:16;;;;;;;24.00;22.00;;;;;;;;;;4899013;29;20432;-71
2023/09/10 05:04:42;;;;;;;23.33;21.23;;;;;;;;;;4894387;29;20475;-71
2023/09/10 05:07:08;;;;;;;22.43;20.83;;;;;;;;;;4896494;29;20448;-71
2023/09/10 05:09:34;;;;;;;20.70;19.30;;;;;;;;;;4881343;29;20487;-71
2023/09/10 05:12:00;;;;;;;20.43;18.97;;;;;;;;;;4878527;29;20497;-71
2023/09/10 05:14:29;;;;;;;21.23;19.70;;;;;;;;;;4887965;29;20468;-70
2023/09/10 05:16:55;;;;;;;22.77;21.07;;;;;;;;;;4881347;29;20468;-71
2023/09/10 05:19:23;;;;;;;20.27;18.77;;;;;;;;;;4889091;29;20437;-71
2023/09/10 05:21:49;;;;;;;20.50;19.07;;;;;;;;;;4884131;29;20465;-71
2023/09/10 05:24:15;;;;;;;20.20;18.60;;;;;;;;;;4889992;29;20846;-71
2023/09/10 05:26:41;;;;;;;20.00;18.63;;;;;;;;;;4878089;29;20454;-71
2023/09/10 05:29:07;;;;;;;21.70;19.67;;;;;;;;;;4883833;29;20488;-72
2023/09/10 05:31:33;;;;;;;22.20;20.70;;;;;;;;;;4890751;29;20883;-71
2023/09/10 05:33:59;;;;;;;19.23;18.00;;;;;;;;;;4879053;29;20505;-71
2023/09/10 05:36:26;;;;;;;21.30;19.37;;;;;;;;;;4882599;29;20444;-71
2023/09/10 05:38:52;;;;;;;21.30;19.90;;;;;;;;;;4886628;29;20881;-71
2023/09/10 05:41:18;;;;;;;20.13;18.70;;;;;;;;;;4892496;29;20448;-71
2023/09/10 05:43:44;;;;;;;20.27;18.83;;;;;;;;;;4875187;29;20463;-71
2023/09/10 05:46:10;;;;;;;19.70;18.40;;;;;;;;;;4884052;29;20457;-71
2023/09/10 05:48:36;;;;;;;24.73;22.60;;;;;;;;;;4880595;29;20453;-70
2023/09/10 05:51:02;;;;;;;20.97;19.47;;;;;;;;;;4884816;29;20425;-70
2023/09/10 05:53:28;;;;;;;19.37;17.87;;;;;;;;;;4883353;29;20477;-71
2023/09/10 05:55:54;;;;;;;18.90;17.60;;;;;;;;;;4890334;29;20602;-71
2023/09/10 05:58:20;;;;;;;20.20;18.90;;;;;;;;;;4880020;29;20480;-71
2023/09/10 06:00:47;;;;;;;18.20;16.90;;;;;;;;;;4889366;29;20492;-72
2023/09/10 06:03:13;;;;;;;18.67;17.50;;;;;;;;;;4879484;29;20500;-72
2023/09/10 06:05:39;;;;;;;17.00;15.70;;;;;;;;;;4885400;29;21019;-72
2023/09/10 06:08:05;;;;;;;17.33;16.23;;;;;;;;;;4881774;29;20437;-72
2023/09/10 06:10:31;;;;;;;17.70;16.40;;;;;;;;;;4885382;29;20452;-72
2023/09/10 06:12:57;;;;;;;17.60;16.50;;;;;;;;;;4877559;29;20533;-71
2023/09/10 06:15:23;;;;;;;17.67;16.43;;;;;;;;;;4874712;29;20531;-71
2023/09/10 06:17:49;;;;;;;16.07;15.10;;;;;;;;;;4892140;29;20451;-72
2023/09/10 06:20:15;;;;;;;16.00;15.00;;;;;;;;;;4882275;29;21261;-72
2023/09/10 06:22:41;;;;;;;16.03;14.80;;;;;;;;;;4889970;29;20425;-72
2023/09/10 06:25:07;;;;;;;15.17;13.97;;;;;;;;;;4878667;29;20453;-72
2023/09/10 06:27:33;;;;;;;15.30;14.27;;;;;;;;;;4882105;29;20943;-71
2023/09/10 06:29:59;;;;;;;14.53;13.53;;;;;;;;;;4877911;29;20440;-73
2023/09/10 06:32:25;;;;;;;15.40;14.13;;;;;;;;;;4877962;29;20529;-72
2023/09/10 06:34:51;;;;;;;16.37;15.00;;;;;;;;;;4872151;29;20456;-72
2023/09/10 06:37:17;;;;;;;15.13;14.20;;;;;;;;;;4878696;29;21042;-73
2023/09/10 06:39:43;;;;;;;14.13;13.33;;;;;;;;;;4878739;29;21053;-72
2023/09/10 06:42:10;;;;;;;14.23;13.03;;;;;;;;;;4899699;29;20522;-73
2023/09/10 06:44:38;;;;;;;15.57;14.47;;;;;;;;;;4883107;29;20520;-73
2023/09/10 06:47:04;;;;;;;14.57;13.50;;;;;;;;;;4875530;29;20453;-71
2023/09/10 06:49:30;;;;;;;14.80;14.00;;;;;;;;;;4871775;29;20449;-72
2023/09/10 06:51:56;;;;;;;13.43;12.40;;;;;;;;;;4881631;29;20441;-71
2023/09/10 06:54:23;;;;;;;14.97;14.07;;;;;;;;;;4877079;29;20596;-73
2023/09/10 06:56:49;;;;;;;14.90;13.80;;;;;;;;;;4877068;29;20500;-73
2023/09/10 06:59:18;;;;;;;14.90;13.90;;;;;;;;;;4883745;29;20437;-73
2023/09/10 07:01:44;;;;;;;15.03;13.63;;;;;;;;;;4879355;29;20473;-73
2023/09/10 07:04:17;;;;;;;13.70;13.00;;;;;;;;;;4885739;29;20436;-73
2023/09/10 07:06:43;;;;;;;13.87;12.97;;;;;;;;;;4880813;29;20489;-71
2023/09/10 07:09:10;;;;;;;14.27;13.57;;;;;;;;;;4870559;29;20452;-72
2023/09/10 07:11:37;;;;;;;13.50;12.83;;;;;;;;;;4894859;29;20527;-72
2023/09/10 07:14:03;;;;;;;12.63;12.03;;;;;;;;;;4884714;29;20476;-72
2023/09/10 07:16:29;;;;;;;14.40;13.70;;;;;;;;;;4882865;29;20456;-73
2023/09/10 07:18:55;;;;;;;15.10;14.30;;;;;;;;;;4878444;29;20456;-72
2023/09/10 07:21:21;;;;;;;14.40;13.40;;;;;;;;;;4878312;29;20441;-72
2023/09/10 07:23:47;;;;;;;13.00;12.30;;;;;;;;;;4894019;29;20455;-73
2023/09/10 07:26:13;;;;;;;13.57;12.87;;;;;;;;;;4880668;29;20451;-72
2023/09/10 07:28:39;;;;;;;14.50;13.33;;;;;;;;;;4893188;29;20476;-72
2023/09/10 07:31:07;;;;;;;13.53;12.53;;;;;;;;;;4894206;29;20921;-73
2023/09/10 07:33:33;;;;;;;14.10;13.40;;;;;;;;;;4883879;29;20560;-72
2023/09/10 07:35:59;;;;;;;12.60;11.90;;;;;;;;;;4881940;29;20621;-72
2023/09/10 07:38:25;;;;;;;13.63;12.53;;;;;;;;;;4890466;29;20445;-72
2023/09/10 07:40:51;;;;;;;12.87;12.17;;;;;;;;;;4890180;29;20413;-72
2023/09/10 07:43:17;;;;;;;12.83;11.77;;;;;;;;;;4884902;29;20441;-72
2023/09/10 07:45:45;;;;;;;11.37;10.80;;;;;;;;;;4889724;29;20859;-71
2023/09/10 07:48:12;;;;;;;12.40;11.67;;;;;;;;;;4888503;29;20437;-72
2023/09/10 07:50:38;;;;;;;12.30;11.80;;;;;;;;;;4888718;29;20415;-73
2023/09/10 07:53:04;;;;;;;13.10;12.30;;;;;;;;;;4894604;29;20511;-71
2023/09/10 07:55:30;;;;;;;12.90;12.10;;;;;;;;;;4883561;29;20437;-73
2023/09/10 07:57:56;;;;;;;13.83;12.80;;;;;;;;;;4889682;29;20437;-72
2023/09/10 08:00:24;;;;;;;15.57;14.57;;;;;;;;;;4888863;29;20536;-73
2023/09/10 08:02:50;;;;;;;14.00;13.23;;;;;;;;;;4892452;29;20495;-73
2023/09/10 08:05:16;;;;;;;12.40;11.67;;;;;;;;;;4888418;29;20464;-73
2023/09/10 08:07:42;;;;;;;15.50;12.63;;;;;;;;;;4905707;29;20439;-72
2023/09/10 08:10:08;;;;;;;13.53;12.83;;;;;;;;;;4876606;29;20441;-71
2023/09/10 08:12:34;;;;;;;12.20;11.50;;;;;;;;;;4876048;29;20548;-71
2023/09/10 08:15:00;;;;;;;13.80;13.00;;;;;;;;;;4879059;29;20443;-72
2023/09/10 08:17:26;;;;;;;12.50;11.70;;;;;;;;;;4893490;29;20463;-72
2023/09/10 08:19:52;;;;;;;11.57;10.87;;;;;;;;;;4881225;29;20441;-71
2023/09/10 08:22:18;;;;;;;12.30;11.50;;;;;;;;;;4889507;29;20975;-72
2023/09/10 08:24:46;;;;;;;12.43;11.73;;;;;;;;;;4872232;29;20437;-72
2023/09/10 08:27:12;;;;;;;14.00;12.90;;;;;;;;;;4876683;29;20437;-71
2023/09/10 08:29:38;;;;;;;11.73;11.03;;;;;;;;;;4882332;29;20445;-72
2023/09/10 08:32:04;;;;;;;13.37;12.53;;;;;;;;;;4885068;29;20604;-72
2023/09/10 08:34:31;;;;;;;13.20;12.20;;;;;;;;;;4883367;29;20495;-73
2023/09/10 08:36:57;;;;;;;13.10;12.00;;;;;;;;;;4882197;29;20480;-72
2023/09/10 08:39:23;;;;;;;12.43;11.83;;;;;;;;;;4883535;29;21159;-71
2023/09/10 08:41:52;;;;;;;11.00;10.30;;;;;;;;;;4877835;29;20461;-71
2023/09/10 08:44:21;;;;;;;11.43;10.70;;;;;;;;;;4882367;29;20445;-73
2023/09/10 08:46:51;;;;;;;11.93;11.13;;;;;;;;;;4882324;29;20440;-71
2023/09/10 08:49:18;;;;;;;12.73;12.13;;;;;;;;;;4881495;29;20443;-72
2023/09/10 08:51:44;;;;;;;12.10;11.40;;;;;;;;;;4882418;29;20924;-72
2023/09/10 08:54:11;;;;;;;10.50;10.00;;;;;;;;;;4881731;29;20553;-73
2023/09/10 08:56:37;;;;;;;12.30;11.27;;;;;;;;;;4878318;29;20466;-72
2023/09/10 08:59:04;;;;;;;11.67;10.87;;;;;;;;;;4882105;29;20448;-72
2023/09/10 09:01:31;;;;;;;10.37;9.87;;;;;;;;;;4881948;29;21002;-73
2023/09/10 09:03:58;;;;;;;10.67;10.00;;;;;;;;;;4883370;29;20444;-72
2023/09/10 09:06:27;;;;;;;10.50;9.70;;;;;;;;;;4878233;29;20580;-72
2023/09/10 09:08:55;;;;;;;10.30;9.70;;;;;;;;;;4880487;29;21203;-73
2023/09/10 09:11:22;;;;;;;10.80;10.40;;;;;;;;;;4881194;29;20844;-72
2023/09/10 09:13:49;;;;;;;10.83;10.17;;;;;;;;;;4878681;29;20726;-71
2023/09/10 09:16:16;;;;;;;11.47;10.67;;;;;;;;;;4877578;29;20452;-72
2023/09/10 09:18:42;;;;;;;11.50;10.77;;;;;;;;;;4886102;29;20431;-72
2023/09/10 09:21:10;;;;;;;9.93;9.23;;;;;;;;;;4884694;29;20445;-72
2023/09/10 09:23:39;;;;;;;10.43;9.60;;;;;;;;;;4884792;29;20468;-71
2023/09/10 09:26:06;;;;;;;10.50;9.50;;;;;;;;;;4883867;29;20441;-73
2023/09/10 09:28:33;;;;;;;10.13;9.17;;;;;;;;;;4879508;29;20454;-75
2023/09/10 09:30:59;;;;;;;13.30;8.80;;;;;;;;;;4879998;29;20440;-72
2023/09/10 09:33:25;;;;;;;10.13;9.10;;;;;;;;;;4882212;29;20479;-73
2023/09/10 09:35:51;;;;;;;11.10;10.10;;;;;;;;;;4883541;29;20437;-73
2023/09/10 09:38:17;;;;;;;10.50;9.50;;;;;;;;;;4882046;29;20468;-73
2023/09/10 09:40:45;;;;;;;9.53;9.03;;;;;;;;;;4878769;29;20429;-71
2023/09/10 09:43:14;;;;;;;9.93;9.23;;;;;;;;;;4880012;29;20451;-74
2023/09/10 09:45:40;;;;;;;9.10;8.20;;;;;;;;;;4876689;29;20567;-72
2023/09/10 09:48:06;;;;;;;10.50;9.50;;;;;;;;;;4879636;29;20441;-73
2023/09/10 09:50:33;;;;;;;9.23;8.43;;;;;;;;;;4883059;29;20439;-72
2023/09/10 09:52:59;;;;;;;9.43;8.83;;;;;;;;;;4883159;29;20471;-73
2023/09/10 09:55:26;;;;;;;10.00;9.50;;;;;;;;;;4878790;29;20445;-73
2023/09/10 09:57:52;;;;;;;9.47;8.83;;;;;;;;;;4878058;29;20512;-73
2023/09/10 10:00:19;;;;;;;10.60;9.77;;;;;;;;;;4878526;29;20465;-72
2023/09/10 10:02:45;;;;;;;9.80;9.20;;;;;;;;;;4879577;29;20871;-73
2023/09/10 10:05:12;;;;;;;11.40;9.73;;;;;;;;;;4882448;29;20858;-72
2023/09/10 10:07:40;;;;;;;9.87;8.97;;;;;;;;;;4880033;29;20464;-73
2023/09/10 10:10:07;;;;;;;9.97;9.43;;;;;;;;;;4877134;29;20437;-73
2023/09/10 10:12:34;;;;;;;9.87;9.20;;;;;;;;;;4875646;29;20474;-73
2023/09/10 10:15:00;;;;;;;9.57;8.97;;;;;;;;;;4880424;29;20491;-72
2023/09/10 10:17:26;;;;;;;9.47;8.27;;;;;;;;;;4878277;29;20453;-73
2023/09/10 10:19:53;;;;;;;9.47;8.67;;;;;;;;;;4878507;29;20467;-72
2023/09/10 10:22:19;;;;;;;9.33;8.03;;;;;;;;;;4888829;29;20429;-73
2023/09/10 10:24:46;;;;;;;9.90;9.20;;;;;;;;;;4889307;29;20445;-73
2023/09/10 10:27:14;;;;;;;8.53;7.80;;;;;;;;;;4885083;29;20465;-73
2023/09/10 10:29:41;;;;;;;8.83;7.93;;;;;;;;;;4892675;29;20452;-73
2023/09/10 10:32:22;;;;;;;9.40;8.50;;;;;;;;;;4888639;29;20437;-73
2023/09/10 10:34:52;;;;;;;9.23;8.27;;;;;;;;;;4882810;29;20880;-73
2023/09/10 10:37:31;;;;;;;9.27;8.40;;;;;;;;;;4889176;29;20513;-73
2023/09/10 10:40:05;;;;;;;9.00;8.37;;;;;;;;;;4879287;29;20499;-73
2023/09/10 10:42:38;;;;;;;8.53;7.93;;;;;;;;;;4878337;29;20442;-73
2023/09/10 10:45:10;;;;;;;8.80;8.10;;;;;;;;;;4888555;29;20484;-72
2023/09/10 10:47:40;;;;;;;9.73;9.10;;;;;;;;;;4886590;29;20428;-73
2023/09/10 10:50:09;;;;;;;8.87;8.27;;;;;;;;;;4879787;29;20468;-72
2023/09/10 10:52:36;;;;;;;9.53;7.53;;;;;;;;;;4888957;29;20508;-72
2023/09/10 10:55:03;;;;;;;12.40;8.30;;;;;;;;;;4888130;29;21160;-73
2023/09/10 10:57:30;;;;;;;14.30;8.10;;;;;;;;;;4888224;29;20427;-73
2023/09/10 10:59:56;;;;;;;8.33;7.83;;;;;;;;;;4886418;29;20985;-72
2023/09/10 11:02:23;;;;;;;8.00;7.40;;;;;;;;;;4891437;29;20566;-73
2023/09/10 11:05:03;;;;;;;8.73;7.80;;;;;;;;;;4888231;29;20469;-73
2023/09/10 11:07:29;;;;;;;8.60;7.60;;;;;;;;;;4883783;29;20435;-73
2023/09/10 11:10:14;;;;;;;8.17;7.47;;;;;;;;;;4881603;29;20591;-75
2023/09/10 11:13:00;;;;;;;11.50;7.30;;;;;;;;;;4878523;29;20507;-73
2023/09/10 11:15:26;;;;;;;7.90;7.30;;;;;;;;;;4887230;29;20447;-73
2023/09/10 11:17:52;;;;;;;7.53;6.97;;;;;;;;;;4888010;29;20437;-73
2023/09/10 11:20:38;;;;;;;8.23;7.73;;;;;;;;;;4884918;29;20497;-73
2023/09/10 11:23:09;;;;;;;7.67;7.07;;;;;;;;;;4891680;29;20507;-72
2023/09/10 11:25:35;;;;;;;9.10;7.70;;;;;;;;;;4890904;29;20460;-72
2023/09/10 11:28:02;;;;;;;12.17;7.83;;;;;;;;;;4890125;29;21037;-74
2023/09/10 11:30:28;;;;;;;7.57;6.93;;;;;;;;;;4883335;29;20484;-72
2023/09/10 11:33:13;;;;;;;9.73;7.37;;;;;;;;;;4886446;29;20541;-72
2023/09/10 11:35:40;;;;;;;6.70;6.10;;;;;;;;;;4885143;29;20433;-73
2023/09/10 11:38:06;;;;;;;7.43;6.50;;;;;;;;;;4887223;29;20473;-73
2023/09/10 11:40:32;;;;;;;7.63;6.70;;;;;;;;;;4894022;29;20494;-73
2023/09/10 11:42:59;;;;;;;7.17;5.90;;;;;;;;;;4891359;29;20935;-73
2023/09/10 11:45:30;;;;;;;8.57;6.17;;;;;;;;;;4888097;29;20451;-76
2023/09/10 11:47:56;;;;;;;6.90;6.43;;;;;;;;;;4889966;29;20451;-72
2023/09/10 11:50:23;;;;;;;8.23;6.10;;;;;;;;;;4882578;29;20442;-73
2023/09/10 11:52:50;;;;;;;11.23;10.23;;;;;;;;;;4886863;29;21224;-73
2023/09/10 11:55:16;;;;;;;8.00;6.50;;;;;;;;;;4888761;29;20435;-73
2023/09/10 11:57:43;;;;;;;8.87;6.77;;;;;;;;;;4893446;29;20418;-74
2023/09/10 12:00:12;;;;;;;7.00;6.63;;;;;;;;;;4881331;29;21208;-72
2023/09/10 12:02:38;;;;;;;7.20;6.60;;;;;;;;;;4890856;29;20478;-73
2023/09/10 12:05:07;;;;;;;7.07;6.47;;;;;;;;;;4892114;29;20454;-72
2023/09/10 12:07:34;;;;;;;8.83;6.40;;;;;;;;;;4892091;29;20442;-74
2023/09/10 12:10:00;;;;;;;8.13;6.43;;;;;;;;;;4874223;29;20966;-75
2023/09/10 12:12:28;;;;;;;7.17;6.43;;;;;;;;;;4886102;29;20466;-74
2023/09/10 12:14:55;;;;;;;7.23;6.73;;;;;;;;;;4891721;29;20475;-74
2023/09/10 12:17:22;;;;;;;8.43;7.80;;;;;;;;;;4879938;29;20452;-72
2023/09/10 12:19:49;;;;;;;7.27;6.63;;;;;;;;;;4890312;29;20448;-73
2023/09/10 12:22:18;;;;;;;6.80;6.50;;;;;;;;;;4884194;29;20436;-74
2023/09/10 12:24:44;;;;;;;6.97;6.30;;;;;;;;;;4886850;29;20448;-75
2023/09/10 12:27:11;;;;;;;6.60;6.30;;;;;;;;;;4885266;29;20448;-74
2023/09/10 12:29:37;;;;;;;7.47;6.60;;;;;;;;;;4881502;29;20445;-73
2023/09/10 12:32:04;;;;;;;7.33;6.77;;;;;;;;;;4889347;29;20523;-73
2023/09/10 12:34:30;;;;;;;8.57;6.07;;;;;;;;;;4886493;29;20484;-73
2023/09/10 12:36:57;;;;;;;7.37;6.97;;;;;;;;;;4889375;29;20455;-73
2023/09/10 12:39:26;;;;;;;6.90;6.60;;;;;;;;;;4886848;29;20937;-73
2023/09/10 12:41:53;;;;;;;6.57;6.17;;;;;;;;;;4880793;29;20432;-73
2023/09/10 12:44:19;;;;;;;7.33;6.90;;;;;;;;;;4875906;29;20860;-73
2023/09/10 12:46:45;;;;;;;7.43;5.90;;;;;;;;;;4891047;29;20414;-74
2023/09/10 12:49:12;;;;;;;6.63;6.13;;;;;;;;;;4879954;29;21210;-73
2023/09/10 12:51:38;;;;;;;7.20;6.80;;;;;;;;;;4880265;29;20449;-73
2023/09/10 12:54:04;;;;;;;7.30;6.67;;;;;;;;;;4888034;29;20474;-73
2023/09/10 12:56:32;;;;;;;6.80;6.30;;;;;;;;;;4879770;29;21535;-74
2023/09/10 12:58:58;;;;;;;7.23;6.63;;;;;;;;;;4886176;29;20441;-74
2023/09/10 13:01:25;;;;;;;9.23;8.63;;;;;;;;;;4879443;29;20464;-73
2023/09/10 13:03:51;;;;;;;6.20;5.80;;;;;;;;;;4879428;29;21139;-74
2023/09/10 13:06:18;;;;;;;7.13;6.50;;;;;;;;;;4880104;29;20616;-74
2023/09/10 13:08:44;;;;;;;8.20;7.00;;;;;;;;;;4877855;29;20449;-72
2023/09/10 13:11:10;;;;;;;7.83;6.53;;;;;;;;;;4872664;29;20456;-73
2023/09/10 13:13:36;;;;;;;7.87;7.30;;;;;;;;;;4871633;29;21069;-74
2023/09/10 13:16:02;;;;;;;7.60;6.93;;;;;;;;;;4877967;29;20477;-73
2023/09/10 13:18:28;;;;;;;7.17;6.70;;;;;;;;;;4881271;29;20968;-74
2023/09/10 13:20:54;;;;;;;7.63;6.97;;;;;;;;;;4875754;29;20476;-74
2023/09/10 13:23:20;;;;;;;8.50;7.80;;;;;;;;;;4874241;29;20964;-72
2023/09/10 13:25:46;;;;;;;6.90;6.40;;;;;;;;;;4877515;29;20441;-73
2023/09/10 13:28:12;;;;;;;7.30;6.73;;;;;;;;;;4876956;29;20540;-75
2023/09/10 13:30:39;;;;;;;11.00;6.30;;;;;;;;;;4875055;29;20586;-73
2023/09/10 13:33:05;;;;;;;7.83;7.10;;;;;;;;;;4879525;29;20476;-72
2023/09/10 13:35:32;;;;;;;7.13;6.80;;;;;;;;;;4882096;29;20516;-73
2023/09/10 13:37:58;;;;;;;8.23;7.83;;;;;;;;;;4874140;29;20853;-73
2023/09/10 13:40:27;;;;;;;6.93;6.50;;;;;;;;;;4877528;29;20453;-74
2023/09/10 13:42:53;;;;;;;6.97;6.33;;;;;;;;;;4876119;29;20440;-73
2023/09/10 13:45:22;;;;;;;7.07;6.50;;;;;;;;;;4879376;29;20445;-73
2023/09/10 13:47:48;;;;;;;7.33;6.70;;;;;;;;;;4874208;29;20550;-74
2023/09/10 13:50:14;;;;;;;7.47;6.97;;;;;;;;;;4876219;29;21189;-73
2023/09/10 13:52:41;;;;;;;7.43;6.60;;;;;;;;;;4877994;29;20473;-73
2023/09/10 13:55:08;;;;;;;6.67;6.37;;;;;;;;;;4876714;29;20461;-73
2023/09/10 13:57:36;;;;;;;7.23;6.50;;;;;;;;;;4878463;29;20441;-72
2023/09/10 14:00:05;;;;;;;6.40;6.00;;;;;;;;;;4876122;29;20528;-73
2023/09/10 14:02:31;;;;;;;6.53;6.03;;;;;;;;;;4876659;29;20445;-73
2023/09/10 14:04:57;;;;;;;7.40;7.00;;;;;;;;;;4880788;29;20460;-73
2023/09/10 14:07:23;;;;;;;7.40;6.20;;;;;;;;;;4887763;29;20524;-75
2023/09/10 14:09:49;;;;;;;9.17;6.23;;;;;;;;;;4876202;29;20467;-74
2023/09/10 14:12:15;;;;;;;6.83;6.33;;;;;;;;;;4882367;29;20537;-73
2023/09/10 14:14:41;;;;;;;13.50;6.87;;;;;;;;;;4881368;29;20468;-73
2023/09/10 14:17:07;;;;;;;8.13;6.67;;;;;;;;;;4884161;29;20453;-74
2023/09/10 14:19:33;;;;;;;7.87;7.30;;;;;;;;;;4882563;29;20456;-73
2023/09/10 14:21:59;;;;;;;9.23;6.27;;;;;;;;;;4879273;29;20441;-72
2023/09/10 14:24:27;;;;;;;8.17;7.37;;;;;;;;;;4882007;29;20712;-74